createdAt,value
2019-04-20T00:01:48.254Z,16.75
2019-04-20T00:04:22.551Z,14.43
2019-04-20T00:06:51.366Z,14.43
2019-04-20T00:09:21.107Z,12.73
2019-04-20T00:11:57.525Z,13.38
2019-04-20T00:14:24.036Z,13.25
2019-04-20T00:16:48.319Z,12.40
2019-04-20T00:19:22.642Z,10.45
2019-04-20T00:21:55.323Z,13.00
2019-04-20T00:24:26.945Z,10.88
2019-04-20T00:27:29.815Z,15.95
2019-04-20T00:29:41.160Z,11.85
2019-04-20T00:32:05.463Z,11.85
2019-04-20T00:34:29.452Z,14.93
2019-04-20T00:36:51.996Z,10.48
2019-04-20T00:39:21.547Z,10.90
2019-04-20T00:41:56.206Z,17.12
2019-04-20T00:44:27.595Z,12.78
2019-04-20T00:47:04.783Z,12.73
2019-04-20T00:49:36.261Z,14.98
2019-04-20T00:52:19.133Z,15.95
2019-04-20T00:54:22.254Z,17.62
2019-04-20T00:56:51.979Z,12.70
2019-04-20T00:59:36.464Z,16.48
2019-04-20T01:02:10.625Z,20.82
2019-04-20T01:04:45.978Z,17.92
2019-04-20T01:07:11.644Z,21.85
2019-04-20T01:09:45.464Z,20.80
2019-04-20T01:12:18.228Z,16.75
2019-04-20T01:14:51.410Z,23.20
2019-04-20T01:17:14.563Z,27.60
2019-04-20T01:19:43.027Z,25.17
2019-04-20T01:22:16.329Z,23.85
2019-04-20T01:24:46.252Z,22.98
2019-04-20T01:27:28.410Z,18.37
2019-04-20T01:29:46.985Z,18.45
2019-04-20T01:32:23.218Z,20.50
2019-04-20T01:34:55.112Z,13.03
2019-04-20T01:37:25.759Z,15.08
2019-04-20T01:39:48.391Z,16.60
2019-04-20T01:42:13.139Z,13.88
2019-04-20T01:44:45.493Z,14.73
2019-04-20T01:47:13.283Z,19.23
2019-04-20T01:49:43.558Z,14.95
2019-04-20T01:52:20.051Z,16.23
2019-04-20T01:55:04.862Z,15.43
2019-04-20T01:57:32.997Z,10.25
2019-04-20T02:00:13.202Z,10.13
2019-04-20T02:02:46.077Z,10.45
2019-04-20T02:05:17.111Z,12.73
2019-04-20T02:07:46.588Z,13.38
2019-04-20T02:10:13.409Z,14.80
2019-04-20T02:12:42.274Z,15.75
2019-04-20T02:15:21.138Z,22.70
2019-04-20T02:17:51.925Z,15.13
2019-04-20T02:20:33.017Z,13.40
2019-04-20T02:22:57.067Z,18.42
2019-04-20T02:25:12.183Z,15.45
2019-04-20T02:27:48.155Z,14.87
2019-04-20T02:30:47.842Z,12.45
2019-04-20T02:33:31.504Z,13.68
2019-04-20T02:38:54.549Z,10.35
2019-04-20T02:41:13.574Z,10.18
2019-04-20T02:43:46.806Z,11.48
2019-04-20T02:45:58.084Z,11.08
2019-04-20T02:48:30.204Z,8.90
2019-04-20T02:51:06.572Z,10.38
2019-04-20T02:53:41.464Z,9.30
2019-04-20T02:56:15.198Z,11.75
2019-04-20T02:58:45.541Z,9.65
2019-04-20T03:01:00.189Z,9.50
2019-04-20T03:03:17.022Z,12.35
2019-04-20T03:05:47.703Z,9.95
2019-04-20T03:08:23.269Z,7.97
2019-04-20T03:11:05.865Z,11.88
2019-04-20T03:13:26.604Z,10.48
2019-04-20T03:16:00.363Z,11.80
2019-04-20T03:18:25.272Z,8.15
2019-04-20T03:21:04.571Z,10.98
2019-04-20T03:23:35.712Z,13.05
2019-04-20T03:25:58.388Z,13.85
2019-04-20T03:28:32.852Z,9.80
2019-04-20T03:36:16.097Z,9.93
2019-04-20T03:38:34.839Z,15.20
2019-04-20T03:40:55.350Z,12.43
2019-04-20T03:43:14.435Z,9.45
2019-04-20T03:45:51.710Z,14.93
2019-04-20T03:48:33.363Z,10.90
2019-04-20T03:51:02.044Z,9.70
2019-04-20T03:53:34.364Z,12.37
2019-04-20T03:56:11.812Z,10.05
2019-04-20T03:58:47.125Z,9.78
2019-04-20T04:01:27.503Z,11.88
2019-04-20T04:04:05.221Z,19.15
2019-04-20T04:09:02.381Z,17.92
2019-04-20T04:11:35.128Z,19.73
2019-04-20T04:13:48.149Z,22.15
2019-04-20T04:16:19.942Z,28.75
2019-04-20T04:18:54.438Z,25.15
2019-04-20T04:21:29.037Z,24.10
2019-04-20T04:24:02.215Z,25.68
2019-04-20T04:26:35.288Z,27.60
2019-04-20T04:29:13.696Z,29.10
2019-04-20T04:31:39.007Z,26.10
2019-04-20T04:34:23.904Z,23.22
2019-04-20T04:36:38.727Z,24.77
2019-04-20T04:39:11.432Z,17.62
2019-04-20T04:41:36.524Z,11.63
2019-04-20T04:44:04.524Z,16.25
2019-04-20T04:46:18.936Z,9.95
2019-04-20T04:48:50.788Z,13.22
2019-04-20T04:51:22.979Z,12.65
2019-04-20T04:53:58.099Z,13.65
2019-04-20T04:56:20.584Z,11.22
2019-04-20T04:58:49.308Z,16.00
2019-04-20T05:01:24.861Z,12.10
2019-04-20T05:04:14.733Z,10.80
2019-04-20T05:06:35.592Z,11.22
2019-04-20T05:08:54.983Z,22.48
2019-04-20T05:11:21.615Z,9.23
2019-04-20T05:13:56.636Z,8.60
2019-04-20T05:16:43.814Z,13.20
2019-04-20T05:19:13.392Z,8.60
2019-04-20T05:21:57.167Z,11.50
2019-04-20T05:24:22.939Z,12.13
2019-04-20T05:27:06.106Z,9.08
2019-04-20T05:29:14.121Z,12.18
2019-04-20T05:31:44.845Z,16.48
2019-04-20T05:34:30.931Z,18.98
2019-04-20T05:36:56.843Z,16.62
2019-04-20T05:39:32.944Z,15.30
2019-04-20T05:41:57.169Z,15.55
2019-04-20T05:44:24.788Z,17.82
2019-04-20T05:47:02.536Z,17.23
2019-04-20T05:49:31.766Z,19.02
2019-04-20T05:52:11.806Z,19.42
2019-04-20T05:54:32.662Z,16.45
2019-04-20T05:57:07.657Z,24.27
2019-04-20T05:59:28.292Z,17.37
2019-04-20T06:02:03.566Z,19.70
2019-04-20T06:04:46.359Z,13.75
2019-04-20T06:06:59.742Z,9.78
2019-04-20T06:09:34.182Z,13.98
2019-04-20T06:14:28.606Z,11.73
2019-04-20T06:17:16.031Z,14.38
2019-04-20T06:19:39.663Z,12.47
2019-04-20T06:22:34.947Z,12.35
2019-04-20T06:25:19.212Z,20.40
2019-04-20T06:27:35.267Z,14.33
2019-04-20T06:30:03.977Z,16.30
2019-04-20T06:33:12.873Z,12.98
2019-04-20T06:36:00.948Z,12.53
2019-04-20T06:38:29.621Z,18.00
2019-04-20T06:43:11.147Z,13.40
2019-04-20T06:45:51.115Z,15.35
2019-04-20T06:50:41.556Z,16.87
2019-04-20T06:53:25.579Z,11.93
2019-04-20T06:55:48.606Z,10.63
2019-04-20T06:58:38.166Z,10.15
2019-04-20T07:00:46.618Z,12.10
2019-04-20T07:03:31.252Z,15.83
2019-04-20T07:06:01.890Z,12.47
2019-04-20T07:08:33.388Z,13.38
2019-04-20T07:10:51.390Z,12.40
2019-04-20T07:13:11.493Z,15.70
2019-04-20T07:16:04.087Z,10.58
2019-04-20T07:21:25.159Z,13.25
2019-04-20T07:23:48.397Z,13.32
2019-04-20T07:26:22.343Z,14.00
2019-04-20T07:28:53.016Z,19.70
2019-04-20T07:31:17.240Z,19.67
2019-04-20T07:33:47.987Z,25.23
2019-04-20T07:36:22.551Z,28.00
2019-04-20T07:38:46.224Z,26.97
2019-04-20T07:41:23.590Z,34.15
2019-04-20T07:43:59.056Z,27.58
2019-04-20T07:46:37.658Z,26.87
2019-04-20T07:48:50.617Z,31.02
2019-04-20T07:51:06.897Z,27.35
2019-04-20T07:53:40.209Z,31.15
2019-04-20T07:56:17.666Z,31.50
2019-04-20T07:58:37.605Z,28.75
2019-04-20T08:03:55.727Z,21.97
2019-04-20T08:06:16.621Z,20.75
2019-04-20T08:08:55.883Z,20.40
2019-04-20T08:11:28.814Z,21.40
2019-04-20T08:14:05.980Z,23.47
2019-04-20T08:16:40.832Z,24.70
2019-04-20T08:19:01.243Z,20.02
2019-04-20T08:21:32.739Z,15.93
2019-04-20T08:23:57.024Z,22.00
2019-04-20T08:26:18.229Z,28.35
2019-04-20T08:28:51.042Z,24.92
2019-04-20T08:31:30.108Z,20.75
2019-04-20T08:34:31.456Z,25.62
2019-04-20T08:36:45.459Z,17.92
2019-04-20T08:39:30.420Z,20.37
2019-04-20T08:41:45.360Z,18.73
2019-04-20T08:44:36.923Z,26.10
2019-04-20T08:46:49.711Z,23.15
2019-04-20T08:49:22.144Z,17.62
2019-04-20T08:51:53.763Z,20.37
2019-04-20T08:54:14.312Z,21.33
2019-04-20T08:56:34.880Z,20.62
2019-04-20T08:58:54.991Z,24.40
2019-04-20T09:01:27.339Z,23.42
2019-04-20T09:04:04.645Z,20.23
2019-04-20T09:06:36.469Z,19.27
2019-04-20T09:09:19.420Z,16.15
2019-04-20T09:11:48.171Z,15.35
2019-04-20T09:14:00.176Z,18.92
2019-04-20T09:16:35.684Z,22.62
2019-04-20T09:19:03.627Z,25.72
2019-04-20T09:21:36.677Z,20.00
2019-04-20T09:24:22.759Z,22.50
2019-04-20T09:26:42.262Z,17.52
2019-04-20T09:29:06.869Z,20.68
2019-04-20T09:31:43.772Z,23.40
2019-04-20T09:34:23.284Z,20.35
2019-04-20T09:36:56.389Z,15.78
2019-04-20T09:39:30.443Z,16.40
2019-04-20T09:42:01.635Z,18.87
2019-04-20T09:44:39.876Z,14.58
2019-04-20T09:47:03.243Z,11.33
2019-04-20T09:49:42.504Z,17.35
2019-04-20T09:52:13.352Z,19.07
2019-04-20T09:54:51.141Z,11.80
2019-04-20T09:57:22.912Z,11.12
2019-04-20T09:59:51.306Z,12.82
2019-04-20T10:02:10.301Z,16.12
2019-04-20T10:04:33.386Z,15.00
2019-04-20T10:07:06.710Z,11.95
2019-04-20T10:09:37.290Z,12.98
2019-04-20T10:12:03.612Z,10.45
2019-04-20T10:14:33.106Z,12.20
2019-04-20T10:17:02.159Z,10.80
2019-04-20T10:19:34.039Z,13.50
2019-04-20T10:22:02.405Z,12.68
2019-04-20T10:24:32.673Z,10.23
2019-04-20T10:27:01.249Z,13.03
2019-04-20T10:29:29.725Z,12.55
2019-04-20T10:32:00.193Z,17.40
2019-04-20T10:34:28.526Z,12.35
2019-04-20T10:36:59.636Z,12.65
2019-04-20T10:39:30.790Z,16.55
2019-04-20T10:42:02.435Z,11.78
2019-04-20T10:44:30.347Z,12.23
2019-04-20T10:47:00.746Z,12.68
2019-04-20T10:49:29.490Z,11.18
2019-04-20T10:51:58.138Z,13.43
2019-04-20T10:54:26.772Z,16.03
2019-04-20T10:56:55.492Z,21.07
2019-04-20T10:59:23.987Z,18.77
2019-04-20T11:01:53.795Z,18.65
2019-04-20T11:04:22.963Z,14.80
2019-04-20T11:06:52.418Z,15.63
2019-04-20T11:11:50.288Z,16.32
2019-04-20T11:19:17.154Z,11.90
2019-04-20T11:21:46.285Z,13.80
2019-04-20T11:24:16.269Z,12.13
2019-04-20T11:26:45.573Z,16.20
2019-04-20T11:29:16.075Z,13.83
2019-04-20T11:31:49.242Z,12.07
2019-04-20T11:34:21.955Z,14.60
2019-04-20T11:36:45.456Z,15.58
2019-04-20T11:39:14.743Z,10.72
2019-04-20T11:41:43.672Z,14.55
2019-04-20T11:44:13.663Z,22.45
2019-04-20T11:46:42.912Z,12.82
2019-04-20T11:49:11.683Z,13.18
2019-04-20T11:51:41.421Z,18.25
2019-04-20T11:54:10.457Z,17.75
2019-04-20T11:56:43.522Z,15.78
2019-04-20T11:59:09.569Z,11.57
2019-04-20T12:01:49.215Z,11.68
2019-04-20T12:04:25.224Z,19.75
2019-04-20T12:06:43.321Z,15.25
2019-04-20T12:09:12.862Z,16.95
2019-04-20T12:11:56.353Z,12.25
2019-04-20T12:14:12.592Z,18.80
2019-04-20T12:16:41.692Z,16.50
2019-04-20T12:19:10.538Z,19.37
2019-04-20T12:21:39.218Z,14.33
2019-04-20T12:24:07.795Z,27.90
2019-04-20T12:26:36.559Z,20.52
2019-04-20T12:29:05.718Z,16.97
2019-04-20T12:34:02.352Z,21.80
2019-04-20T12:36:30.960Z,14.33
2019-04-20T12:38:59.442Z,14.30
2019-04-20T12:41:37.901Z,14.13
2019-04-20T12:43:59.430Z,17.87
2019-04-20T12:46:28.178Z,28.40
2019-04-20T12:48:57.682Z,15.63
2019-04-20T12:51:33.868Z,15.08
2019-04-20T12:53:56.577Z,14.45
2019-04-20T12:56:26.444Z,17.07
2019-04-20T12:58:55.791Z,17.57
2019-04-20T13:01:25.870Z,32.45
2019-04-20T13:03:55.353Z,13.08
2019-04-20T13:06:24.102Z,15.98
2019-04-20T13:08:55.933Z,10.10
2019-04-20T13:11:24.795Z,13.65
2019-04-20T13:14:32.797Z,11.43
2019-04-20T13:17:02.076Z,14.23
2019-04-20T13:19:31.198Z,15.28
2019-04-20T13:22:01.056Z,13.95
2019-04-20T13:24:29.670Z,11.48
2019-04-20T13:27:02.536Z,10.00
2019-04-20T13:29:31.424Z,10.95
2019-04-20T13:32:00.218Z,15.35
2019-04-20T13:34:28.765Z,14.45
2019-04-20T13:36:58.183Z,14.20
2019-04-20T13:39:26.965Z,8.35
2019-04-20T13:42:03.425Z,13.62
2019-04-20T13:44:27.088Z,16.23
2019-04-20T13:46:56.720Z,11.00
2019-04-20T13:49:25.493Z,12.63
2019-04-20T13:51:54.908Z,20.60
2019-04-20T13:54:26.415Z,34.70
2019-04-20T13:56:55.722Z,16.07
2019-04-20T13:59:37.904Z,12.40
2019-04-20T14:02:10.955Z,14.18
2019-04-20T14:04:41.151Z,11.95
2019-04-20T14:07:14.167Z,18.25
2019-04-20T14:09:41.568Z,15.32
2019-04-20T14:12:17.302Z,12.80
2019-04-20T14:14:41.358Z,8.28
2019-04-20T14:17:10.767Z,10.93
2019-04-20T14:19:39.483Z,13.38
2019-04-20T14:22:08.284Z,12.67
2019-04-20T14:24:37.249Z,12.95
2019-04-20T14:27:06.587Z,13.13
2019-04-20T14:29:35.398Z,9.75
2019-04-20T14:32:05.434Z,9.20
2019-04-20T14:34:35.183Z,10.25
2019-04-20T14:37:04.755Z,10.63
2019-04-20T14:42:02.440Z,10.08
2019-04-20T14:44:32.052Z,18.20
2019-04-20T14:49:28.732Z,13.22
2019-04-20T14:51:58.154Z,8.13
2019-04-20T14:54:27.670Z,13.03
2019-04-20T14:56:56.365Z,9.33
2019-04-20T14:59:27.426Z,11.90
2019-04-20T15:02:00.861Z,12.33
2019-04-20T15:04:31.666Z,8.95
2019-04-20T15:07:00.405Z,11.85
2019-04-20T15:09:29.034Z,13.68
2019-04-20T15:11:58.938Z,11.87
2019-04-20T15:14:28.918Z,15.58
2019-04-20T15:16:58.434Z,13.38
2019-04-20T15:19:31.825Z,11.40
2019-04-20T15:22:03.153Z,8.18
2019-04-20T15:24:31.870Z,7.45
2019-04-20T15:27:00.548Z,9.48
2019-04-20T15:29:30.417Z,10.27
2019-04-20T15:31:59.891Z,10.53
2019-04-20T15:34:28.903Z,8.98
2019-04-20T15:36:58.189Z,11.57
2019-04-20T15:39:27.331Z,13.35
2019-04-20T15:41:57.079Z,10.43
2019-04-20T15:44:25.587Z,13.53
2019-04-20T15:46:55.246Z,9.33
2019-04-20T15:51:52.622Z,11.60
2019-04-20T15:54:21.090Z,7.80
2019-04-20T15:56:56.490Z,10.25
2019-04-20T15:59:20.094Z,10.43
2019-04-20T16:01:51.379Z,9.28
2019-04-20T16:04:41.213Z,6.58
2019-04-20T16:07:08.784Z,7.58
2019-04-20T16:09:37.901Z,9.53
2019-04-20T16:12:06.894Z,11.50
2019-04-20T16:14:35.527Z,10.98
2019-04-20T16:17:07.429Z,9.20
2019-04-20T16:19:44.968Z,9.90
2019-04-20T16:22:05.827Z,9.05
2019-04-20T16:24:38.630Z,6.15
2019-04-20T16:27:25.575Z,8.73
2019-04-20T16:29:54.047Z,13.05
2019-04-20T16:32:24.806Z,11.70
2019-04-20T16:34:53.342Z,8.95
2019-04-20T16:37:24.809Z,10.00
2019-04-20T16:39:54.425Z,7.53
2019-04-20T16:42:24.673Z,9.98
2019-04-20T16:44:53.900Z,8.73
2019-04-20T16:47:22.383Z,9.33
2019-04-20T16:49:51.270Z,11.80
2019-04-20T16:52:21.114Z,10.63
2019-04-20T16:54:53.565Z,14.78
2019-04-20T16:57:21.989Z,12.85
2019-04-20T16:59:54.421Z,12.20
2019-04-20T17:02:22.767Z,9.80
2019-04-20T17:04:54.810Z,7.12
2019-04-20T17:07:37.294Z,6.10
2019-04-20T17:10:09.735Z,8.63
2019-04-20T17:12:43.729Z,8.05
2019-04-20T17:15:14.230Z,6.08
2019-04-20T17:17:49.286Z,4.78
2019-04-20T17:20:19.838Z,8.05
2019-04-20T17:22:50.774Z,9.28
2019-04-20T17:25:22.215Z,11.83
2019-04-20T17:28:17.475Z,9.50
2019-04-20T17:31:04.059Z,10.10
2019-04-20T17:33:55.372Z,8.95
2019-04-20T17:38:48.513Z,7.33
2019-04-20T17:41:36.232Z,10.35
2019-04-20T17:44:01.420Z,11.95
2019-04-20T17:46:28.639Z,10.72
2019-04-20T17:49:00.681Z,7.58
2019-04-20T17:51:34.640Z,11.03
2019-04-20T17:53:55.814Z,9.05
2019-04-20T17:56:18.630Z,10.13
2019-04-20T17:58:48.014Z,15.32
2019-04-20T18:01:48.745Z,14.60
2019-04-20T18:04:42.985Z,9.65
2019-04-20T18:06:56.493Z,10.38
2019-04-20T18:09:37.164Z,7.87
2019-04-20T18:11:46.666Z,13.43
2019-04-20T18:14:31.520Z,8.78
2019-04-20T18:17:07.717Z,11.73
2019-04-20T18:19:24.726Z,12.18
2019-04-20T18:21:53.850Z,8.85
2019-04-20T18:24:43.619Z,9.95
2019-04-20T18:27:23.244Z,7.28
2019-04-20T18:29:40.914Z,9.93
2019-04-20T18:31:59.545Z,7.33
2019-04-20T18:34:54.147Z,11.12
2019-04-20T18:37:20.168Z,7.83
2019-04-20T18:39:53.404Z,17.50
2019-04-20T18:42:24.924Z,9.03
2019-04-20T18:45:10.708Z,13.38
2019-04-20T18:47:42.188Z,13.15
2019-04-20T18:49:57.169Z,16.12
2019-04-20T18:52:19.816Z,14.70
2019-04-20T18:54:52.002Z,15.18
2019-04-20T18:57:23.229Z,20.17
2019-04-20T18:59:54.117Z,16.73
2019-04-20T19:02:26.927Z,18.80
2019-04-20T19:04:50.109Z,18.85
2019-04-20T19:07:19.765Z,14.30
2019-04-20T19:12:22.823Z,11.00
2019-04-20T19:15:18.641Z,16.45
2019-04-20T19:17:49.767Z,11.78
2019-04-20T19:20:27.534Z,12.05
2019-04-20T19:22:58.191Z,12.33
2019-04-20T19:25:31.589Z,14.03
2019-04-20T19:27:59.468Z,10.08
2019-04-20T19:30:35.303Z,15.35
2019-04-20T19:33:15.051Z,14.50
2019-04-20T19:35:41.706Z,13.18
2019-04-20T19:38:09.630Z,15.90
2019-04-20T19:40:42.907Z,11.55
2019-04-20T19:43:14.780Z,14.30
2019-04-20T19:46:05.578Z,15.80
2019-04-20T19:48:17.720Z,19.77
2019-04-20T19:50:54.710Z,12.37
2019-04-20T19:53:26.427Z,14.05
2019-04-20T19:55:47.826Z,16.93
2019-04-20T19:58:16.301Z,19.62
2019-04-20T20:00:50.574Z,17.57
2019-04-20T20:03:17.432Z,13.85
2019-04-20T20:05:48.060Z,12.28
2019-04-20T20:08:20.957Z,15.83
2019-04-20T20:10:46.408Z,21.75
2019-04-20T20:13:15.051Z,18.57
2019-04-20T20:15:45.097Z,21.87
2019-04-20T20:18:29.451Z,16.93
2019-04-20T20:20:59.640Z,18.73
2019-04-20T20:23:16.230Z,13.18
2019-04-20T20:25:49.223Z,15.18
2019-04-20T20:28:29.936Z,15.75
2019-04-20T20:30:56.854Z,14.38
2019-04-20T20:33:37.946Z,11.70
2019-04-20T20:35:55.345Z,12.55
2019-04-20T20:38:24.449Z,10.75
2019-04-20T20:41:02.952Z,11.75
2019-04-20T20:43:22.987Z,11.60
2019-04-20T20:46:01.175Z,19.45
2019-04-20T20:48:31.360Z,21.73
2019-04-20T20:51:07.759Z,18.55
2019-04-20T20:53:32.851Z,17.82
2019-04-20T20:55:59.246Z,22.65
2019-04-20T20:58:25.520Z,18.52
2019-04-20T21:00:57.590Z,15.78
2019-04-20T21:03:27.094Z,22.20
2019-04-20T21:05:49.586Z,13.83
2019-04-20T21:10:47.700Z,14.65
2019-04-20T21:13:17.282Z,12.25
2019-04-20T21:18:36.811Z,14.70
2019-04-20T21:21:02.144Z,15.40
2019-04-20T21:23:30.525Z,16.32
2019-04-20T21:26:04.699Z,14.25
2019-04-20T21:28:36.106Z,13.32
2019-04-20T21:31:11.306Z,13.98
2019-04-20T21:33:37.759Z,14.05
2019-04-20T21:36:06.996Z,13.78
2019-04-20T21:38:40.469Z,14.53
2019-04-20T21:41:11.266Z,17.15
2019-04-20T21:43:40.474Z,16.70
2019-04-20T21:46:08.962Z,15.10
2019-04-20T21:48:54.592Z,18.75
2019-04-20T21:51:22.884Z,18.95
2019-04-20T21:53:37.803Z,13.78
2019-04-20T21:56:08.107Z,14.55
2019-04-20T21:58:46.367Z,16.32
2019-04-20T22:01:16.314Z,17.15
2019-04-20T22:03:38.391Z,16.12
2019-04-20T22:06:08.544Z,14.65
2019-04-20T22:08:39.467Z,18.12
2019-04-20T22:11:08.152Z,15.08
2019-04-20T22:13:40.217Z,12.00
2019-04-20T22:16:10.562Z,11.78
2019-04-20T22:18:48.582Z,13.30
2019-04-20T22:21:19.862Z,16.15
2019-04-20T22:23:57.232Z,14.00
2019-04-20T22:26:18.792Z,13.32
2019-04-20T22:28:38.279Z,12.80
2019-04-20T22:31:06.748Z,11.87
2019-04-20T22:33:41.381Z,10.50
2019-04-20T22:36:12.312Z,12.43
2019-04-20T22:38:59.826Z,11.95
2019-04-20T22:41:28.097Z,13.58
2019-04-20T22:43:56.688Z,12.75
2019-04-20T22:46:31.846Z,12.25
2019-04-20T22:49:19.156Z,9.80
2019-04-20T22:51:39.972Z,5.95
2019-04-20T22:54:14.602Z,9.18
2019-04-20T22:56:39.053Z,7.58
2019-04-20T22:59:04.115Z,6.00
2019-04-20T23:01:32.110Z,7.55
2019-04-20T23:03:56.872Z,6.95
2019-04-20T23:06:34.943Z,4.58
2019-04-20T23:08:59.533Z,6.22
2019-04-20T23:11:30.028Z,7.95
2019-04-20T23:13:56.161Z,7.20
2019-04-20T23:16:27.935Z,4.90
2019-04-20T23:18:56.053Z,7.92
2019-04-20T23:21:25.876Z,5.37
2019-04-20T23:26:30.157Z,9.03
2019-04-20T23:28:56.212Z,9.05
2019-04-20T23:31:26.626Z,10.18
2019-04-20T23:33:54.312Z,6.97
2019-04-20T23:36:29.260Z,9.38
2019-04-20T23:38:57.710Z,9.48
2019-04-20T23:41:23.834Z,5.83
2019-04-20T23:44:01.744Z,8.08
2019-04-20T23:46:28.290Z,5.50
2019-04-20T23:49:19.986Z,6.17
2019-04-20T23:52:05.743Z,8.95
2019-04-20T23:54:22.009Z,6.05
2019-04-20T23:56:43.938Z,7.55
2019-04-20T23:59:12.726Z,6.50
